sensor_id;sensor_type;location;lat;lon;timestamp;pressure;altitude;pressure_sealevel;temperature;humidity
49063;BME280;34876;51.464;-0.150;2023-01-24T00:01:55;103787.43;;;15.29;34.50
49063;BME280;34876;51.464;-0.150;2023-01-24T00:04:24;103786.48;;;15.27;34.57
49063;BME280;34876;51.464;-0.150;2023-01-24T00:06:53;103786.59;;;15.29;34.57
49063;BME280;34876;51.464;-0.150;2023-01-24T00:09:23;103787.40;;;15.23;34.63
49063;BME280;34876;51.464;-0.150;2023-01-24T00:11:52;103791.38;;;15.28;34.50
49063;BME280;34876;51.464;-0.150;2023-01-24T00:14:21;103789.72;;;15.30;34.64
49063;BME280;34876;51.464;-0.150;2023-01-24T00:16:50;103789.64;;;15.25;34.67
49063;BME280;34876;51.464;-0.150;2023-01-24T00:19:20;103805.03;;;12.66;39.94
49063;BME280;34876;51.464;-0.150;2023-01-24T00:21:49;103794.31;;;14.30;36.85
49063;BME280;34876;51.464;-0.150;2023-01-24T00:24:18;103786.37;;;15.01;35.31
49063;BME280;34876;51.464;-0.150;2023-01-24T00:26:47;103783.26;;;14.58;36.08
49063;BME280;34876;51.464;-0.150;2023-01-24T00:29:16;103783.46;;;14.68;36.08
49063;BME280;34876;51.464;-0.150;2023-01-24T00:31:45;103792.80;;;13.08;39.48
49063;BME280;34876;51.464;-0.150;2023-01-24T00:34:15;103787.65;;;14.15;37.24
49063;BME280;34876;51.464;-0.150;2023-01-24T00:36:44;103778.81;;;14.80;35.81
49063;BME280;34876;51.464;-0.150;2023-01-24T00:39:13;103778.59;;;14.81;35.81
49063;BME280;34876;51.464;-0.150;2023-01-24T00:41:42;103786.17;;;14.35;36.68
49063;BME280;34876;51.464;-0.150;2023-01-24T00:44:12;103780.51;;;14.69;36.12
49063;BME280;34876;51.464;-0.150;2023-01-24T00:46:41;103781.61;;;14.68;36.06
49063;BME280;34876;51.464;-0.150;2023-01-24T00:49:10;103787.26;;;15.10;35.15
49063;BME280;34876;51.464;-0.150;2023-01-24T00:51:38;103784.66;;;15.13;35.15
49063;BME280;34876;51.464;-0.150;2023-01-24T00:54:08;103783.11;;;15.24;34.90
49063;BME280;34876;51.464;-0.150;2023-01-24T00:56:37;103782.68;;;15.26;34.93
49063;BME280;34876;51.464;-0.150;2023-01-24T00:59:06;103786.53;;;15.27;34.92
49063;BME280;34876;51.464;-0.150;2023-01-24T01:03:27;103789.38;;;14.77;35.86
49063;BME280;34876;51.464;-0.150;2023-01-24T01:05:58;103787.09;;;15.09;35.33
49063;BME280;34876;51.464;-0.150;2023-01-24T01:08:27;103784.24;;;15.17;35.09
49063;BME280;34876;51.464;-0.150;2023-01-24T01:10:56;103783.49;;;15.22;34.95
49063;BME280;34876;51.464;-0.150;2023-01-24T01:13:26;103784.41;;;15.18;35.09
49063;BME280;34876;51.464;-0.150;2023-01-24T01:16:06;103785.29;;;15.35;34.97
49063;BME280;34876;51.464;-0.150;2023-01-24T01:18:36;103778.98;;;15.34;34.88
49063;BME280;34876;51.464;-0.150;2023-01-24T01:21:06;103775.14;;;15.25;35.02
49063;BME280;34876;51.464;-0.150;2023-01-24T01:23:35;103772.62;;;15.33;34.83
49063;BME280;34876;51.464;-0.150;2023-01-24T01:26:07;103774.21;;;15.08;35.43
49063;BME280;34876;51.464;-0.150;2023-01-24T01:28:36;103772.35;;;15.23;35.17
49063;BME280;34876;51.464;-0.150;2023-01-24T01:31:05;103772.20;;;15.27;35.09
49063;BME280;34876;51.464;-0.150;2023-01-24T01:33:34;103774.16;;;15.29;34.89
49063;BME280;34876;51.464;-0.150;2023-01-24T01:36:03;103770.60;;;15.31;34.88
49063;BME280;34876;51.464;-0.150;2023-01-24T01:38:32;103771.09;;;15.18;35.27
49063;BME280;34876;51.464;-0.150;2023-01-24T01:41:02;103768.37;;;15.31;34.95
49063;BME280;34876;51.464;-0.150;2023-01-24T01:43:31;103764.43;;;15.35;34.85
49063;BME280;34876;51.464;-0.150;2023-01-24T01:46:07;103767.37;;;14.93;35.68
49063;BME280;34876;51.464;-0.150;2023-01-24T01:48:45;103765.99;;;15.12;35.31
49063;BME280;34876;51.464;-0.150;2023-01-24T01:51:19;103765.63;;;15.28;35.04
49063;BME280;34876;51.464;-0.150;2023-01-24T01:53:52;103767.28;;;14.72;36.23
49063;BME280;34876;51.464;-0.150;2023-01-24T01:56:25;103765.14;;;15.21;35.21
49063;BME280;34876;51.464;-0.150;2023-01-24T01:58:58;103768.05;;;15.33;35.07
49063;BME280;34876;51.464;-0.150;2023-01-24T02:01:29;103769.11;;;15.34;34.95
49063;BME280;34876;51.464;-0.150;2023-01-24T02:04:06;103769.23;;;15.36;34.96
49063;BME280;34876;51.464;-0.150;2023-01-24T02:06:46;103770.08;;;15.37;34.90
49063;BME280;34876;51.464;-0.150;2023-01-24T02:09:21;103768.51;;;15.36;34.93
49063;BME280;34876;51.464;-0.150;2023-01-24T02:11:55;103770.96;;;15.36;34.95
49063;BME280;34876;51.464;-0.150;2023-01-24T02:14:27;103769.60;;;15.42;34.99
49063;BME280;34876;51.464;-0.150;2023-01-24T02:16:57;103774.42;;;15.48;35.03
49063;BME280;34876;51.464;-0.150;2023-01-24T02:19:37;103774.09;;;15.50;34.99
49063;BME280;34876;51.464;-0.150;2023-01-24T02:22:15;103777.71;;;15.35;34.94
49063;BME280;34876;51.464;-0.150;2023-01-24T02:24:51;103778.29;;;15.40;34.94
49063;BME280;34876;51.464;-0.150;2023-01-24T02:27:21;103782.93;;;15.42;34.95
49063;BME280;34876;51.464;-0.150;2023-01-24T02:29:51;103777.91;;;15.42;34.85
49063;BME280;34876;51.464;-0.150;2023-01-24T02:32:20;103780.31;;;15.43;34.96
49063;BME280;34876;51.464;-0.150;2023-01-24T02:34:49;103782.32;;;15.43;34.94
49063;BME280;34876;51.464;-0.150;2023-01-24T02:37:19;103783.16;;;15.44;34.89
49063;BME280;34876;51.464;-0.150;2023-01-24T02:39:50;103783.72;;;15.44;34.97
49063;BME280;34876;51.464;-0.150;2023-01-24T02:42:25;103786.22;;;15.42;34.92
49063;BME280;34876;51.464;-0.150;2023-01-24T02:44:58;103784.04;;;15.41;35.03
49063;BME280;34876;51.464;-0.150;2023-01-24T02:47:32;103784.45;;;15.34;35.05
49063;BME280;34876;51.464;-0.150;2023-01-24T02:50:05;103782.99;;;15.43;34.93
49063;BME280;34876;51.464;-0.150;2023-01-24T02:52:34;103780.64;;;15.42;34.91
49063;BME280;34876;51.464;-0.150;2023-01-24T02:55:04;103779.43;;;15.45;34.94
49063;BME280;34876;51.464;-0.150;2023-01-24T02:57:33;103778.87;;;15.46;34.98
49063;BME280;34876;51.464;-0.150;2023-01-24T03:00:03;103781.21;;;15.45;35.02
49063;BME280;34876;51.464;-0.150;2023-01-24T03:02:32;103784.71;;;15.42;35.01
49063;BME280;34876;51.464;-0.150;2023-01-24T03:05:01;103787.52;;;15.46;34.99
49063;BME280;34876;51.464;-0.150;2023-01-24T03:07:30;103786.23;;;15.44;34.98
49063;BME280;34876;51.464;-0.150;2023-01-24T03:09:59;103783.62;;;15.47;35.01
49063;BME280;34876;51.464;-0.150;2023-01-24T03:12:28;103781.00;;;15.48;34.91
49063;BME280;34876;51.464;-0.150;2023-01-24T03:14:57;103782.06;;;15.47;34.98
49063;BME280;34876;51.464;-0.150;2023-01-24T03:17:26;103782.81;;;14.72;36.42
49063;BME280;34876;51.464;-0.150;2023-01-24T03:19:54;103775.75;;;15.33;35.29
49063;BME280;34876;51.464;-0.150;2023-01-24T03:22:23;103772.40;;;15.23;35.41
49063;BME280;34876;51.464;-0.150;2023-01-24T03:24:52;103774.33;;;15.40;35.14
49063;BME280;34876;51.464;-0.150;2023-01-24T03:27:21;103771.28;;;15.44;35.04
49063;BME280;34876;51.464;-0.150;2023-01-24T03:29:50;103769.47;;;15.27;35.34
49063;BME280;34876;51.464;-0.150;2023-01-24T03:32:19;103769.00;;;15.44;35.02
49063;BME280;34876;51.464;-0.150;2023-01-24T03:34:48;103770.79;;;15.46;35.00
49063;BME280;34876;51.464;-0.150;2023-01-24T03:37:17;103771.07;;;15.47;35.10
49063;BME280;34876;51.464;-0.150;2023-01-24T03:39:47;103770.35;;;15.47;35.03
49063;BME280;34876;51.464;-0.150;2023-01-24T03:42:15;103771.14;;;15.49;35.02
49063;BME280;34876;51.464;-0.150;2023-01-24T03:44:44;103771.75;;;15.50;35.04
49063;BME280;34876;51.464;-0.150;2023-01-24T03:47:13;103772.97;;;15.47;35.05
49063;BME280;34876;51.464;-0.150;2023-01-24T03:49:42;103774.66;;;15.50;35.00
49063;BME280;34876;51.464;-0.150;2023-01-24T03:52:11;103773.54;;;15.51;34.98
49063;BME280;34876;51.464;-0.150;2023-01-24T03:54:40;103773.99;;;15.51;35.06
49063;BME280;34876;51.464;-0.150;2023-01-24T03:57:09;103775.66;;;15.50;35.03
49063;BME280;34876;51.464;-0.150;2023-01-24T03:59:38;103776.93;;;15.48;35.14
49063;BME280;34876;51.464;-0.150;2023-01-24T04:02:07;103773.99;;;15.38;35.30
49063;BME280;34876;51.464;-0.150;2023-01-24T04:04:36;103778.89;;;15.49;35.16
49063;BME280;34876;51.464;-0.150;2023-01-24T04:07:05;103776.95;;;15.52;35.09
49063;BME280;34876;51.464;-0.150;2023-01-24T04:09:33;103776.12;;;15.55;35.02
49063;BME280;34876;51.464;-0.150;2023-01-24T04:12:03;103775.57;;;15.56;34.98
49063;BME280;34876;51.464;-0.150;2023-01-24T04:14:32;103777.50;;;15.50;35.10
49063;BME280;34876;51.464;-0.150;2023-01-24T04:17:01;103777.67;;;15.52;35.11
49063;BME280;34876;51.464;-0.150;2023-01-24T04:19:30;103775.77;;;15.50;35.05
49063;BME280;34876;51.464;-0.150;2023-01-24T04:21:59;103776.41;;;15.43;35.24
49063;BME280;34876;51.464;-0.150;2023-01-24T04:24:28;103777.03;;;15.34;35.47
49063;BME280;34876;51.464;-0.150;2023-01-24T04:26:57;103775.84;;;15.42;35.37
49063;BME280;34876;51.464;-0.150;2023-01-24T04:29:26;103774.23;;;15.21;35.67
49063;BME280;34876;51.464;-0.150;2023-01-24T04:31:55;103773.42;;;15.16;35.74
49063;BME280;34876;51.464;-0.150;2023-01-24T04:34:24;103769.63;;;15.26;35.68
49063;BME280;34876;51.464;-0.150;2023-01-24T04:36:53;103767.98;;;15.42;35.31
49063;BME280;34876;51.464;-0.150;2023-01-24T04:39:22;103772.52;;;15.46;35.27
49063;BME280;34876;51.464;-0.150;2023-01-24T04:41:50;103771.91;;;15.48;35.20
49063;BME280;34876;51.464;-0.150;2023-01-24T04:44:19;103772.93;;;15.51;35.11
49063;BME280;34876;51.464;-0.150;2023-01-24T04:46:48;103773.05;;;15.52;35.12
49063;BME280;34876;51.464;-0.150;2023-01-24T04:49:17;103772.63;;;15.14;35.93
49063;BME280;34876;51.464;-0.150;2023-01-24T04:51:47;103773.51;;;15.43;35.34
49063;BME280;34876;51.464;-0.150;2023-01-24T04:54:16;103772.36;;;15.49;35.17
49063;BME280;34876;51.464;-0.150;2023-01-24T04:56:46;103772.14;;;15.49;35.24
49063;BME280;34876;51.464;-0.150;2023-01-24T04:59:15;103770.49;;;15.54;35.14
49063;BME280;34876;51.464;-0.150;2023-01-24T05:01:44;103766.09;;;15.57;35.09
49063;BME280;34876;51.464;-0.150;2023-01-24T05:04:13;103767.95;;;15.48;35.21
49063;BME280;34876;51.464;-0.150;2023-01-24T05:06:42;103765.11;;;15.48;35.22
49063;BME280;34876;51.464;-0.150;2023-01-24T05:09:10;103760.38;;;15.51;35.19
49063;BME280;34876;51.464;-0.150;2023-01-24T05:11:39;103759.15;;;15.51;35.16
49063;BME280;34876;51.464;-0.150;2023-01-24T05:14:08;103760.63;;;15.57;35.09
49063;BME280;34876;51.464;-0.150;2023-01-24T05:16:38;103759.78;;;15.55;35.17
49063;BME280;34876;51.464;-0.150;2023-01-24T05:19:07;103760.79;;;15.55;35.14
49063;BME280;34876;51.464;-0.150;2023-01-24T05:21:36;103763.72;;;15.50;35.30
49063;BME280;34876;51.464;-0.150;2023-01-24T05:24:06;103767.38;;;15.45;35.35
49063;BME280;34876;51.464;-0.150;2023-01-24T05:26:34;103769.05;;;15.03;36.15
49063;BME280;34876;51.464;-0.150;2023-01-24T05:29:03;103767.98;;;15.02;36.29
49063;BME280;34876;51.464;-0.150;2023-01-24T05:31:32;103775.51;;;14.21;37.71
49063;BME280;34876;51.464;-0.150;2023-01-24T05:34:01;103763.90;;;15.18;36.02
49063;BME280;34876;51.464;-0.150;2023-01-24T05:36:31;103767.19;;;15.40;35.53
49063;BME280;34876;51.464;-0.150;2023-01-24T05:38:59;103766.51;;;15.49;35.31
49063;BME280;34876;51.464;-0.150;2023-01-24T05:41:29;103767.23;;;15.49;35.37
49063;BME280;34876;51.464;-0.150;2023-01-24T05:43:58;103769.71;;;15.20;35.88
49063;BME280;34876;51.464;-0.150;2023-01-24T05:46:27;103775.74;;;15.33;35.67
49063;BME280;34876;51.464;-0.150;2023-01-24T05:48:55;103780.28;;;15.49;35.38
49063;BME280;34876;51.464;-0.150;2023-01-24T05:51:24;103782.86;;;15.52;35.25
49063;BME280;34876;51.464;-0.150;2023-01-24T05:53:54;103783.12;;;15.47;35.34
49063;BME280;34876;51.464;-0.150;2023-01-24T05:56:22;103782.66;;;15.45;35.43
49063;BME280;34876;51.464;-0.150;2023-01-24T05:58:51;103787.58;;;15.46;35.35
49063;BME280;34876;51.464;-0.150;2023-01-24T06:01:21;103786.28;;;15.32;35.73
49063;BME280;34876;51.464;-0.150;2023-01-24T06:03:52;103786.24;;;15.47;35.34
49063;BME280;34876;51.464;-0.150;2023-01-24T06:06:22;103787.98;;;15.37;35.57
49063;BME280;34876;51.464;-0.150;2023-01-24T06:08:52;103787.54;;;15.38;35.60
49063;BME280;34876;51.464;-0.150;2023-01-24T06:11:22;103787.68;;;15.44;35.49
49063;BME280;34876;51.464;-0.150;2023-01-24T06:13:53;103785.07;;;15.46;35.45
49063;BME280;34876;51.464;-0.150;2023-01-24T06:16:24;103785.24;;;14.61;37.05
49063;BME280;34876;51.464;-0.150;2023-01-24T06:18:54;103796.81;;;14.41;37.37
49063;BME280;34876;51.464;-0.150;2023-01-24T06:21:36;103796.85;;;14.28;37.19
49063;BME280;34876;51.464;-0.150;2023-01-24T06:24:16;103784.89;;;15.14;36.11
49063;BME280;34876;51.464;-0.150;2023-01-24T06:26:46;103785.64;;;15.38;35.57
49063;BME280;34876;51.464;-0.150;2023-01-24T06:29:16;103781.47;;;15.10;36.07
49063;BME280;34876;51.464;-0.150;2023-01-24T06:31:54;103782.23;;;15.36;35.63
49063;BME280;34876;51.464;-0.150;2023-01-24T06:34:37;103780.72;;;15.47;35.36
49063;BME280;34876;51.464;-0.150;2023-01-24T06:37:15;103785.20;;;14.71;36.86
49063;BME280;34876;51.464;-0.150;2023-01-24T06:39:50;103782.59;;;14.58;37.14
49063;BME280;34876;51.464;-0.150;2023-01-24T06:42:21;103791.16;;;13.62;38.63
49063;BME280;34876;51.464;-0.150;2023-01-24T06:44:50;103791.94;;;14.16;38.08
49063;BME280;34876;51.464;-0.150;2023-01-24T06:47:19;103798.67;;;12.74;39.81
49063;BME280;34876;51.464;-0.150;2023-01-24T06:49:48;103797.91;;;14.18;38.20
49063;BME280;34876;51.464;-0.150;2023-01-24T06:52:17;103800.10;;;14.30;37.45
49063;BME280;34876;51.464;-0.150;2023-01-24T06:54:45;103800.20;;;13.28;39.67
49063;BME280;34876;51.464;-0.150;2023-01-24T06:57:14;103820.17;;;10.43;45.61
49063;BME280;34876;51.464;-0.150;2023-01-24T06:59:43;103819.80;;;10.19;46.48
49063;BME280;34876;51.464;-0.150;2023-01-24T07:02:12;103806.03;;;12.76;40.33
49063;BME280;34876;51.464;-0.150;2023-01-24T07:04:41;103808.25;;;11.36;44.03
49063;BME280;34876;51.464;-0.150;2023-01-24T07:07:10;103812.84;;;11.18;44.93
49063;BME280;34876;51.464;-0.150;2023-01-24T07:09:39;103810.77;;;11.15;43.82
49063;BME280;34876;51.464;-0.150;2023-01-24T07:12:08;103810.88;;;11.90;42.63
49063;BME280;34876;51.464;-0.150;2023-01-24T07:14:36;103816.53;;;11.29;44.56
49063;BME280;34876;51.464;-0.150;2023-01-24T07:17:06;103827.46;;;10.06;47.79
49063;BME280;34876;51.464;-0.150;2023-01-24T07:19:35;103817.12;;;11.75;43.54
49063;BME280;34876;51.464;-0.150;2023-01-24T07:22:08;103811.26;;;13.39;39.55
49063;BME280;34876;51.464;-0.150;2023-01-24T07:24:38;103817.42;;;14.00;38.11
49063;BME280;34876;51.464;-0.150;2023-01-24T07:27:07;103819.08;;;13.26;40.00
49063;BME280;34876;51.464;-0.150;2023-01-24T07:29:36;103825.52;;;13.49;39.62
49063;BME280;34876;51.464;-0.150;2023-01-24T07:32:05;103832.00;;;12.99;40.20
49063;BME280;34876;51.464;-0.150;2023-01-24T07:34:34;103833.96;;;13.56;39.26
49063;BME280;34876;51.464;-0.150;2023-01-24T07:37:05;103843.26;;;11.92;42.94
49063;BME280;34876;51.464;-0.150;2023-01-24T07:39:35;103845.22;;;12.38;41.79
49063;BME280;34876;51.464;-0.150;2023-01-24T07:42:03;103849.85;;;11.83;43.16
49063;BME280;34876;51.464;-0.150;2023-01-24T07:44:32;103855.13;;;12.43;41.12
49063;BME280;34876;51.464;-0.150;2023-01-24T07:47:01;103858.64;;;11.39;44.26
49063;BME280;34876;51.464;-0.150;2023-01-24T07:49:30;103858.69;;;12.28;42.30
49063;BME280;34876;51.464;-0.150;2023-01-24T07:51:59;103878.91;;;9.13;47.72
49063;BME280;34876;51.464;-0.150;2023-01-24T07:54:28;103860.98;;;11.80;43.69
49063;BME280;34876;51.464;-0.150;2023-01-24T07:56:57;103854.81;;;13.61;39.59
49063;BME280;34876;51.464;-0.150;2023-01-24T07:59:25;103864.66;;;12.92;40.90
49063;BME280;34876;51.464;-0.150;2023-01-24T08:01:55;103866.75;;;13.39;39.28
49063;BME280;34876;51.464;-0.150;2023-01-24T08:04:23;103865.80;;;13.98;38.01
49063;BME280;34876;51.464;-0.150;2023-01-24T08:06:52;103877.94;;;11.92;41.86
49063;BME280;34876;51.464;-0.150;2023-01-24T08:09:21;103879.76;;;12.19;42.34
49063;BME280;34876;51.464;-0.150;2023-01-24T08:11:50;103899.47;;;10.10;46.57
49063;BME280;34876;51.464;-0.150;2023-01-24T08:14:21;103896.40;;;11.74;43.88
49063;BME280;34876;51.464;-0.150;2023-01-24T08:16:51;103895.37;;;12.48;41.75
49063;BME280;34876;51.464;-0.150;2023-01-24T08:19:19;103899.91;;;11.83;42.36
49063;BME280;34876;51.464;-0.150;2023-01-24T08:21:48;103902.22;;;11.84;41.84
49063;BME280;34876;51.464;-0.150;2023-01-24T08:24:18;103900.38;;;12.76;40.37
49063;BME280;34876;51.464;-0.150;2023-01-24T08:26:47;103900.49;;;12.67;41.22
49063;BME280;34876;51.464;-0.150;2023-01-24T08:29:16;103900.07;;;12.59;41.64
49063;BME280;34876;51.464;-0.150;2023-01-24T08:31:45;103895.43;;;13.51;38.80
49063;BME280;34876;51.464;-0.150;2023-01-24T08:34:15;103893.57;;;13.98;38.32
49063;BME280;34876;51.464;-0.150;2023-01-24T08:36:44;103900.08;;;14.07;38.08
49063;BME280;34876;51.464;-0.150;2023-01-24T08:39:13;103904.08;;;14.38;37.52
49063;BME280;34876;51.464;-0.150;2023-01-24T08:41:43;103908.09;;;14.15;37.76
49063;BME280;34876;51.464;-0.150;2023-01-24T08:44:12;103917.04;;;12.35;40.56
49063;BME280;34876;51.464;-0.150;2023-01-24T08:46:42;103910.41;;;13.92;38.58
49063;BME280;34876;51.464;-0.150;2023-01-24T08:49:11;103915.27;;;13.85;37.57
49063;BME280;34876;51.464;-0.150;2023-01-24T08:51:40;103918.01;;;14.07;38.10
49063;BME280;34876;51.464;-0.150;2023-01-24T08:54:10;103926.11;;;14.74;36.62
49063;BME280;34876;51.464;-0.150;2023-01-24T08:56:40;103922.28;;;13.93;37.56
49063;BME280;34876;51.464;-0.150;2023-01-24T08:59:09;103938.66;;;11.92;41.48
49063;BME280;34876;51.464;-0.150;2023-01-24T09:01:38;103928.00;;;13.61;39.07
49063;BME280;34876;51.464;-0.150;2023-01-24T09:04:08;103933.62;;;13.16;39.81
49063;BME280;34876;51.464;-0.150;2023-01-24T09:06:37;103931.87;;;13.14;38.33
49063;BME280;34876;51.464;-0.150;2023-01-24T09:09:06;103933.80;;;12.88;40.34
49063;BME280;34876;51.464;-0.150;2023-01-24T09:11:35;103937.77;;;11.65;43.40
49063;BME280;34876;51.464;-0.150;2023-01-24T09:14:04;103933.86;;;12.73;40.88
49063;BME280;34876;51.464;-0.150;2023-01-24T09:16:34;103947.58;;;11.15;42.11
49063;BME280;34876;51.464;-0.150;2023-01-24T09:19:03;103952.45;;;10.85;45.42
49063;BME280;34876;51.464;-0.150;2023-01-24T09:21:32;103943.20;;;11.46;42.08
49063;BME280;34876;51.464;-0.150;2023-01-24T09:24:01;103929.55;;;13.72;37.85
49063;BME280;34876;51.464;-0.150;2023-01-24T09:26:30;103933.13;;;12.81;39.01
49063;BME280;34876;51.464;-0.150;2023-01-24T09:28:59;103941.52;;;11.20;43.61
49063;BME280;34876;51.464;-0.150;2023-01-24T09:31:28;103947.67;;;9.01;47.48
49063;BME280;34876;51.464;-0.150;2023-01-24T09:33:57;103944.33;;;9.73;46.92
49063;BME280;34876;51.464;-0.150;2023-01-24T09:36:26;103943.55;;;10.37;44.31
49063;BME280;34876;51.464;-0.150;2023-01-24T09:38:55;103939.36;;;9.89;47.54
49063;BME280;34876;51.464;-0.150;2023-01-24T09:41:31;103931.69;;;12.46;40.08
49063;BME280;34876;51.464;-0.150;2023-01-24T09:44:13;103941.91;;;10.97;45.25
49063;BME280;34876;51.464;-0.150;2023-01-24T09:46:46;103929.99;;;13.11;39.20
49063;BME280;34876;51.464;-0.150;2023-01-24T09:49:22;103942.80;;;10.44;43.98
49063;BME280;34876;51.464;-0.150;2023-01-24T09:51:59;103916.00;;;12.19;42.16
49063;BME280;34876;51.464;-0.150;2023-01-24T09:54:36;103919.72;;;11.63;42.95
49063;BME280;34876;51.464;-0.150;2023-01-24T09:57:10;103916.12;;;13.09;40.24
49063;BME280;34876;51.464;-0.150;2023-01-24T09:59:43;103906.55;;;14.17;37.74
49063;BME280;34876;51.464;-0.150;2023-01-24T10:02:16;103924.39;;;11.31;42.22
49063;BME280;34876;51.464;-0.150;2023-01-24T10:04:47;103918.16;;;12.53;40.85
49063;BME280;34876;51.464;-0.150;2023-01-24T10:07:40;103927.34;;;11.55;40.89
49063;BME280;34876;51.464;-0.150;2023-01-24T10:10:25;103915.79;;;13.51;38.96
49063;BME280;34876;51.464;-0.150;2023-01-24T10:13:03;103925.57;;;11.65;41.26
49063;BME280;34876;51.464;-0.150;2023-01-24T10:15:42;103923.74;;;12.18;41.83
49063;BME280;34876;51.464;-0.150;2023-01-24T10:18:26;103937.77;;;10.95;43.17
49063;BME280;34876;51.464;-0.150;2023-01-24T10:21:24;103940.22;;;10.89;44.31
49063;BME280;34876;51.464;-0.150;2023-01-24T10:23:58;103944.53;;;8.23;51.70
49063;BME280;34876;51.464;-0.150;2023-01-24T10:26:34;103958.22;;;6.48;54.13
49063;BME280;34876;51.464;-0.150;2023-01-24T10:29:11;103932.74;;;11.02;45.31
49063;BME280;34876;51.464;-0.150;2023-01-24T10:31:43;103930.29;;;12.72;39.25
49063;BME280;34876;51.464;-0.150;2023-01-24T10:34:18;103930.11;;;12.02;42.46
49063;BME280;34876;51.464;-0.150;2023-01-24T10:36:52;103937.56;;;11.04;42.44
49063;BME280;34876;51.464;-0.150;2023-01-24T10:39:22;103926.04;;;12.59;40.04
49063;BME280;34876;51.464;-0.150;2023-01-24T10:41:51;103922.10;;;13.61;38.77
49063;BME280;34876;51.464;-0.150;2023-01-24T10:44:24;103920.39;;;13.81;37.81
49063;BME280;34876;51.464;-0.150;2023-01-24T10:47:08;103925.48;;;14.36;37.01
49063;BME280;34876;51.464;-0.150;2023-01-24T10:49:45;103923.98;;;13.64;37.00
49063;BME280;34876;51.464;-0.150;2023-01-24T10:52:17;103927.27;;;13.05;39.17
49063;BME280;34876;51.464;-0.150;2023-01-24T10:54:49;103922.85;;;13.03;39.31
49063;BME280;34876;51.464;-0.150;2023-01-24T10:57:36;103925.11;;;13.15;39.17
49063;BME280;34876;51.464;-0.150;2023-01-24T11:00:19;103927.62;;;11.82;42.34
49063;BME280;34876;51.464;-0.150;2023-01-24T11:02:53;103919.35;;;12.05;41.78
49063;BME280;34876;51.464;-0.150;2023-01-24T11:05:24;103920.36;;;11.39;42.83
49063;BME280;34876;51.464;-0.150;2023-01-24T11:07:58;103911.55;;;13.51;38.95
49063;BME280;34876;51.464;-0.150;2023-01-24T11:10:31;103904.52;;;13.76;38.02
49063;BME280;34876;51.464;-0.150;2023-01-24T11:13:18;103921.54;;;10.14;44.19
49063;BME280;34876;51.464;-0.150;2023-01-24T11:15:55;103918.80;;;9.43;47.38
49063;BME280;34876;51.464;-0.150;2023-01-24T11:18:28;103906.75;;;11.54;43.49
49063;BME280;34876;51.464;-0.150;2023-01-24T11:21:07;103918.04;;;11.95;40.98
49063;BME280;34876;51.464;-0.150;2023-01-24T11:23:37;103921.58;;;9.47;45.01
49063;BME280;34876;51.464;-0.150;2023-01-24T11:26:23;103917.52;;;11.11;41.82
49063;BME280;34876;51.464;-0.150;2023-01-24T11:28:59;103898.05;;;13.75;38.43
49063;BME280;34876;51.464;-0.150;2023-01-24T11:31:31;103895.86;;;14.07;37.50
49063;BME280;34876;51.464;-0.150;2023-01-24T11:34:20;103893.87;;;14.58;36.25
49063;BME280;34876;51.464;-0.150;2023-01-24T11:37:04;103897.51;;;11.79;39.72
49063;BME280;34876;51.464;-0.150;2023-01-24T11:39:39;103893.72;;;12.37;38.82
49063;BME280;34876;51.464;-0.150;2023-01-24T11:42:18;103896.70;;;12.84;39.58
49063;BME280;34876;51.464;-0.150;2023-01-24T11:45:00;103890.64;;;14.03;37.56
49063;BME280;34876;51.464;-0.150;2023-01-24T11:47:34;103887.25;;;14.13;36.89
49063;BME280;34876;51.464;-0.150;2023-01-24T11:50:16;103885.26;;;14.39;36.65
49063;BME280;34876;51.464;-0.150;2023-01-24T11:53:03;103886.91;;;14.82;35.87
49063;BME280;34876;51.464;-0.150;2023-01-24T11:55:45;103884.32;;;14.50;36.46
49063;BME280;34876;51.464;-0.150;2023-01-24T11:58:30;103879.93;;;14.68;36.12
49063;BME280;34876;51.464;-0.150;2023-01-24T12:01:07;103879.50;;;14.69;36.00
49063;BME280;34876;51.464;-0.150;2023-01-24T12:03:48;103875.37;;;14.46;35.36
49063;BME280;34876;51.464;-0.150;2023-01-24T12:06:31;103871.83;;;14.17;37.14
49063;BME280;34876;51.464;-0.150;2023-01-24T12:09:10;103872.59;;;14.82;35.80
49063;BME280;34876;51.464;-0.150;2023-01-24T12:11:45;103868.02;;;14.46;34.79
49063;BME280;34876;51.464;-0.150;2023-01-24T12:14:34;103866.74;;;13.28;37.08
49063;BME280;34876;51.464;-0.150;2023-01-24T12:17:14;103855.00;;;14.84;35.82
49063;BME280;34876;51.464;-0.150;2023-01-24T12:19:55;103856.82;;;13.91;37.20
49063;BME280;34876;51.464;-0.150;2023-01-24T12:22:30;103857.34;;;13.97;35.09
49063;BME280;34876;51.464;-0.150;2023-01-24T12:25:03;103855.86;;;14.28;36.59
49063;BME280;34876;51.464;-0.150;2023-01-24T12:27:35;103845.12;;;15.17;35.07
49063;BME280;34876;51.464;-0.150;2023-01-24T12:30:13;103838.81;;;15.16;34.09
49063;BME280;34876;51.464;-0.150;2023-01-24T12:30:26;103840.66;;;14.94;34.52
49063;BME280;34876;51.464;-0.150;2023-01-24T12:33:01;103837.22;;;14.70;34.68
49063;BME280;34876;51.464;-0.150;2023-01-24T12:35:34;103833.99;;;13.59;37.83
49063;BME280;34876;51.464;-0.150;2023-01-24T12:38:16;103831.19;;;14.62;36.12
49063;BME280;34876;51.464;-0.150;2023-01-24T12:40:50;103833.04;;;13.85;37.56
49063;BME280;34876;51.464;-0.150;2023-01-24T12:43:26;103824.66;;;14.94;35.52
49063;BME280;34876;51.464;-0.150;2023-01-24T12:46:04;103828.28;;;14.61;36.05
49063;BME280;34876;51.464;-0.150;2023-01-24T12:48:39;103823.64;;;14.08;37.13
49063;BME280;34876;51.464;-0.150;2023-01-24T12:51:18;103817.27;;;14.96;35.38
49063;BME280;34876;51.464;-0.150;2023-01-24T12:53:58;103818.06;;;14.76;35.30
49063;BME280;34876;51.464;-0.150;2023-01-24T12:56:33;103826.61;;;12.19;38.41
49063;BME280;34876;51.464;-0.150;2023-01-24T12:59:07;103816.63;;;12.59;40.21
49063;BME280;34876;51.464;-0.150;2023-01-24T13:02:01;103803.22;;;14.80;35.87
49063;BME280;34876;51.464;-0.150;2023-01-24T13:04:42;103809.02;;;13.81;37.70